Aeroporto :
LOGIN :

Iscrizione | Disclaimer

   EN    FR    IT 

 










Sommario :    VFR   VFR Marginale   IFR   IFR Intensivo   IFR Molto Intensivo
Visibilità : 
Base nubi : 
>= 8 km
>= 3000ft
5 / 8 km
1000 / 3000 ft
1500m / 5 km
500 / 1000 ft
800 / 1500m
200 / 500 ft
< 800m
< 200 ft
Simboli :   Temporali  Nebbia  Neve Forte  Precipitazioni Forti  Vento > 20 kt
SIGMETs :   Varie  Temporali  Ghiacco  Turbolenza  Onda orograficha  Ceneri Vulcaniche






- Altitudine del aeroporto : 2297 ft


LEGA - Armilla

ULTIMO METAR :
  • 040800Z 28006KT 9999 BKN040 19/12 Q1012

METARs OBSOLETI :
  • 040700Z 32002KT 9999 BKN040 18/10 Q1012
  • 040600Z 00000KT 9999 FEW030 SCT043 17/10 Q1011

TAF TAF LEGA
Valido dal 04 a 09 ore il 04 a 18 ore UTC


040800Z 0409/0418 30010KT 9999 SCT040
PROB40
TEMPO 0412/0418 30015G25KT 4000 SHRA SCT020TCU FEW030CB



MetMap, La meteo Aeronautica in un colpo d'occhio ! - Copyright ORBIFLY Dicembre 2007 - Disclaimer

ORBIFLY MET'MAP TEAM :

Programmazione e sviluppo : Alexandra Zaïnal
Concezione : Baudouin d'Aumeries
Aiuto per la programmazione : Marc-Olivier Méhu
Supporto tecnico e logistico : Manuel Goepfert
Aiuto per la traduzione : Arnaldo La Scala

Contatto : metmap@orbifly.com




FONTI E CREDITI :

   NOAA